createdAt,value
2017-12-22T00:02:26.318Z,26.73
2017-12-22T00:04:54.654Z,25.27
2017-12-22T00:07:23.034Z,28.70
2017-12-22T00:09:51.407Z,26.37
2017-12-22T00:12:19.911Z,36.83
2017-12-22T00:14:48.294Z,26.17
2017-12-22T00:17:16.686Z,25.63
2017-12-22T00:19:45.043Z,32.93
2017-12-22T00:22:14.671Z,25.10
2017-12-22T00:24:43.036Z,28.57
2017-12-22T00:27:12.256Z,28.17
2017-12-22T00:29:41.401Z,25.97
2017-12-22T00:32:09.967Z,28.00
2017-12-22T00:34:38.332Z,30.27
2017-12-22T00:37:06.732Z,27.80
2017-12-22T00:39:36.062Z,29.60
2017-12-22T00:42:05.467Z,32.03
2017-12-22T00:44:33.946Z,41.60
2017-12-22T00:47:02.323Z,27.30
2017-12-22T00:49:30.676Z,32.40
2017-12-22T00:51:59.058Z,26.97
2017-12-22T00:54:27.538Z,33.40
2017-12-22T00:56:55.906Z,28.43
2017-12-22T00:59:24.482Z,32.27
2017-12-22T01:01:52.862Z,32.00
2017-12-22T01:04:21.209Z,27.80
2017-12-22T01:06:50.362Z,34.33
2017-12-22T01:09:18.750Z,34.23
2017-12-22T01:11:47.321Z,27.70
2017-12-22T01:14:15.688Z,29.37
2017-12-22T01:16:49.669Z,29.00
2017-12-22T01:19:19.967Z,29.23
2017-12-22T01:21:49.099Z,38.40
2017-12-22T01:24:17.611Z,25.70
2017-12-22T01:26:45.980Z,37.17
2017-12-22T01:29:14.350Z,30.83
2017-12-22T01:31:42.826Z,31.20
2017-12-22T01:34:11.196Z,36.20
2017-12-22T01:36:39.553Z,38.43
2017-12-22T01:39:08.104Z,32.80
2017-12-22T01:41:36.479Z,33.43
2017-12-22T01:44:04.863Z,31.87
2017-12-22T01:46:33.294Z,32.40
2017-12-22T01:49:01.741Z,28.10
2017-12-22T01:51:30.868Z,32.40
2017-12-22T01:53:59.267Z,32.33
2017-12-22T01:56:27.668Z,28.47
2017-12-22T01:58:57.093Z,28.23
2017-12-22T02:01:26.231Z,26.00
2017-12-22T02:03:54.599Z,28.77
2017-12-22T02:06:23.128Z,28.73
2017-12-22T02:08:52.265Z,29.90
2017-12-22T02:11:20.644Z,29.33
2017-12-22T02:13:49.036Z,28.83
2017-12-22T02:16:17.503Z,23.90
2017-12-22T02:18:45.883Z,25.50
2017-12-22T02:21:14.327Z,24.50
2017-12-22T02:23:43.461Z,24.77
2017-12-22T02:26:11.845Z,26.87
2017-12-22T02:28:40.224Z,24.90
2017-12-22T02:31:08.603Z,22.17
2017-12-22T02:33:36.990Z,23.33
2017-12-22T02:36:05.364Z,24.27
2017-12-22T02:38:33.742Z,26.00
2017-12-22T02:41:02.115Z,24.87
2017-12-22T02:43:30.529Z,21.10
2017-12-22T02:45:58.965Z,23.80
2017-12-22T02:48:28.290Z,21.87
2017-12-22T02:50:56.674Z,20.00
2017-12-22T02:53:25.036Z,22.23
2017-12-22T02:55:53.471Z,25.80
2017-12-22T02:58:22.909Z,25.13
2017-12-22T03:00:51.303Z,25.83
2017-12-22T03:03:22.624Z,20.93
2017-12-22T03:05:51.018Z,19.47
2017-12-22T03:08:19.402Z,23.10
2017-12-22T03:10:47.919Z,25.90
2017-12-22T03:13:17.088Z,21.70
2017-12-22T03:15:46.195Z,16.93
2017-12-22T03:18:14.632Z,20.40
2017-12-22T03:20:43.033Z,19.80
2017-12-22T03:23:11.433Z,20.97
2017-12-22T03:25:39.959Z,21.00
2017-12-22T03:28:08.474Z,19.90
2017-12-22T03:30:36.895Z,18.13
2017-12-22T03:33:06.271Z,17.63
2017-12-22T03:35:34.646Z,17.47
2017-12-22T03:38:03.038Z,15.47
2017-12-22T03:40:31.426Z,16.37
2017-12-22T03:43:00.219Z,18.30
2017-12-22T03:45:29.375Z,20.13
2017-12-22T03:47:57.739Z,18.80
2017-12-22T03:50:26.351Z,14.53
2017-12-22T03:52:55.428Z,12.30
2017-12-22T03:55:23.810Z,15.23
2017-12-22T03:57:52.264Z,11.20
2017-12-22T04:00:20.913Z,11.90
2017-12-22T04:02:50.257Z,12.23
2017-12-22T04:05:18.654Z,11.37
2017-12-22T04:07:47.993Z,9.97
2017-12-22T04:10:17.164Z,12.60
2017-12-22T04:12:45.536Z,11.20
2017-12-22T04:15:13.754Z,10.23
2017-12-22T04:17:42.143Z,9.63
2017-12-22T04:20:10.498Z,9.70
2017-12-22T04:22:38.947Z,9.50
2017-12-22T04:25:07.841Z,11.10
2017-12-22T04:27:36.796Z,14.20
2017-12-22T04:30:05.162Z,9.97
2017-12-22T04:32:34.206Z,10.30
2017-12-22T04:35:02.693Z,8.57
2017-12-22T04:37:31.910Z,12.03
2017-12-22T04:40:00.425Z,10.40
2017-12-22T04:42:28.946Z,9.30
2017-12-22T04:44:58.108Z,8.43
2017-12-22T04:47:26.503Z,8.30
2017-12-22T04:49:55.040Z,7.47
2017-12-22T04:52:23.561Z,7.57
2017-12-22T04:54:51.936Z,7.57
2017-12-22T04:57:20.393Z,7.60
2017-12-22T04:59:49.058Z,6.13
2017-12-22T05:02:18.190Z,6.27
2017-12-22T05:04:46.814Z,6.30
2017-12-22T05:07:15.658Z,6.07
2017-12-22T05:09:44.041Z,7.13
2017-12-22T05:12:12.393Z,6.60
2017-12-22T05:14:40.761Z,5.90
2017-12-22T05:17:09.156Z,6.17
2017-12-22T05:19:37.839Z,6.87
2017-12-22T05:22:06.300Z,9.53
2017-12-22T05:24:34.697Z,6.70
2017-12-22T05:27:03.197Z,5.57
2017-12-22T05:29:31.650Z,5.60
2017-12-22T05:32:00.007Z,5.37
2017-12-22T05:34:28.555Z,5.67
2017-12-22T05:36:57.095Z,5.10
2017-12-22T05:39:25.608Z,5.23
2017-12-22T05:41:54.084Z,5.40
2017-12-22T05:44:22.462Z,5.03
2017-12-22T05:46:50.820Z,5.07
2017-12-22T05:49:19.343Z,5.23
2017-12-22T05:51:48.121Z,5.17
2017-12-22T05:54:16.689Z,5.23
2017-12-22T05:56:45.052Z,4.60
2017-12-22T05:59:13.442Z,4.33
2017-12-22T06:01:41.843Z,4.40
2017-12-22T06:04:11.127Z,5.40
2017-12-22T06:06:39.747Z,5.30
2017-12-22T06:09:08.997Z,4.60
2017-12-22T06:11:38.018Z,4.50
2017-12-22T06:14:06.386Z,4.80
2017-12-22T06:16:34.738Z,4.77
2017-12-22T06:19:03.318Z,4.03
2017-12-22T06:21:31.978Z,4.10
2017-12-22T06:24:00.482Z,4.30
2017-12-22T06:26:28.910Z,4.50
2017-12-22T06:28:58.879Z,5.10
2017-12-22T06:31:27.301Z,5.63
2017-12-22T06:33:55.833Z,6.20
2017-12-22T06:36:24.550Z,5.10
2017-12-22T06:38:52.972Z,5.30
2017-12-22T06:41:21.557Z,5.40
2017-12-22T06:43:50.751Z,4.93
2017-12-22T06:46:20.056Z,5.93
2017-12-22T06:48:49.240Z,5.97
2017-12-22T06:51:18.367Z,5.50
2017-12-22T06:53:46.763Z,8.73
2017-12-22T06:56:15.260Z,5.57
2017-12-22T06:58:43.607Z,6.77
2017-12-22T07:01:12.240Z,6.50
2017-12-22T07:03:41.397Z,6.53
2017-12-22T07:06:09.966Z,6.67
2017-12-22T07:08:38.448Z,6.30
2017-12-22T07:11:06.799Z,7.83
2017-12-22T07:13:36.097Z,5.70
2017-12-22T07:16:05.336Z,5.70
2017-12-22T07:18:33.535Z,6.37
2017-12-22T07:21:01.992Z,7.10
2017-12-22T07:23:30.388Z,6.50
2017-12-22T07:25:58.736Z,6.13
2017-12-22T07:28:27.245Z,5.60
2017-12-22T07:30:56.238Z,8.03
2017-12-22T07:33:24.699Z,7.33
2017-12-22T07:35:53.196Z,7.77
2017-12-22T07:38:21.853Z,7.27
2017-12-22T07:40:50.292Z,8.10
2017-12-22T07:43:19.610Z,7.70
2017-12-22T07:45:48.618Z,7.00
2017-12-22T07:48:17.003Z,7.90
2017-12-22T07:50:46.928Z,7.40
2017-12-22T07:53:15.358Z,6.83
2017-12-22T07:55:44.500Z,8.47
2017-12-22T07:58:13.737Z,6.87
2017-12-22T08:00:42.892Z,7.90
2017-12-22T08:03:11.359Z,8.73
2017-12-22T08:05:40.249Z,6.23
2017-12-22T08:08:08.732Z,6.43
2017-12-22T08:10:37.215Z,6.93
2017-12-22T08:13:05.589Z,5.87
2017-12-22T08:15:34.155Z,6.53
2017-12-22T08:18:03.326Z,5.90
2017-12-22T08:20:32.775Z,7.03
2017-12-22T08:23:01.149Z,6.77
2017-12-22T08:25:29.538Z,5.63
2017-12-22T08:27:57.953Z,5.97
2017-12-22T08:30:26.319Z,5.13
2017-12-22T08:32:54.711Z,5.60
2017-12-22T08:35:23.868Z,5.50
2017-12-22T08:37:52.242Z,4.87
2017-12-22T08:40:20.616Z,6.07
2017-12-22T08:42:49.014Z,5.60
2017-12-22T08:45:17.389Z,5.43
2017-12-22T08:47:45.958Z,5.90
2017-12-22T08:50:14.328Z,5.17
2017-12-22T08:52:42.763Z,6.23
2017-12-22T08:55:11.139Z,6.67
2017-12-22T08:57:40.351Z,6.60
2017-12-22T09:00:09.652Z,6.27
2017-12-22T09:02:38.807Z,7.07
2017-12-22T09:05:07.219Z,7.20
2017-12-22T09:07:36.399Z,7.00
2017-12-22T09:10:05.662Z,6.80
2017-12-22T09:12:34.004Z,6.47
2017-12-22T09:15:02.941Z,6.37
2017-12-22T09:17:31.347Z,6.43
2017-12-22T09:19:59.729Z,6.90
2017-12-22T09:22:30.319Z,7.73
2017-12-22T09:24:58.693Z,8.53
2017-12-22T09:27:27.257Z,10.57
2017-12-22T09:29:55.647Z,10.67
2017-12-22T09:32:24.184Z,11.77
2017-12-22T09:34:52.523Z,13.80
2017-12-22T09:37:20.906Z,13.63
2017-12-22T09:39:49.283Z,11.53
2017-12-22T09:42:17.907Z,12.37
2017-12-22T09:44:47.823Z,13.10
2017-12-22T09:47:16.958Z,12.73
2017-12-22T09:49:45.320Z,15.53
2017-12-22T09:52:13.841Z,15.43
2017-12-22T09:54:42.218Z,13.40
2017-12-22T09:57:10.577Z,15.00
2017-12-22T09:59:38.918Z,16.63
2017-12-22T10:02:08.074Z,16.30
2017-12-22T10:04:36.507Z,19.30
2017-12-22T10:07:04.979Z,16.33
2017-12-22T10:09:33.503Z,17.87
2017-12-22T10:12:01.863Z,18.30
2017-12-22T10:14:30.233Z,16.60
2017-12-22T10:16:58.580Z,17.20
2017-12-22T10:19:27.726Z,16.23
2017-12-22T10:21:56.148Z,17.30
2017-12-22T10:24:25.325Z,17.53
2017-12-22T10:26:53.880Z,16.37
2017-12-22T10:29:22.416Z,16.23
2017-12-22T10:31:51.676Z,16.00
2017-12-22T10:34:20.132Z,17.80
2017-12-22T10:36:48.509Z,18.70
2017-12-22T10:39:16.887Z,16.50
2017-12-22T10:41:45.241Z,15.67
2017-12-22T10:44:13.594Z,11.20
2017-12-22T10:46:42.732Z,15.60
2017-12-22T10:49:11.160Z,12.67
2017-12-22T10:51:39.593Z,13.97
2017-12-22T10:54:07.967Z,12.30
2017-12-22T10:56:36.333Z,15.00
2017-12-22T10:59:04.703Z,18.23
2017-12-22T11:01:33.075Z,12.47
2017-12-22T11:04:02.213Z,10.93
2017-12-22T11:06:30.566Z,13.10
2017-12-22T11:08:59.093Z,13.30
2017-12-22T11:11:27.553Z,13.77
2017-12-22T11:13:55.885Z,13.17
2017-12-22T11:16:24.244Z,10.73
2017-12-22T11:18:52.677Z,15.00
2017-12-22T11:21:21.037Z,12.57
2017-12-22T11:23:49.404Z,10.83
2017-12-22T11:26:17.768Z,14.43
2017-12-22T11:28:46.909Z,16.87
2017-12-22T11:31:15.307Z,15.13
2017-12-22T11:33:43.879Z,15.73
2017-12-22T11:36:12.266Z,12.90
2017-12-22T11:38:40.638Z,13.40
2017-12-22T11:41:09.011Z,14.03
2017-12-22T11:43:37.386Z,14.17
2017-12-22T11:46:05.769Z,16.93
2017-12-22T11:48:34.146Z,14.90
2017-12-22T11:51:02.513Z,17.23
2017-12-22T11:53:30.859Z,12.77
2017-12-22T11:55:59.239Z,15.50
2017-12-22T11:58:27.659Z,10.50
2017-12-22T12:00:56.197Z,12.07
2017-12-22T12:03:24.593Z,12.67
2017-12-22T12:05:52.935Z,9.10
2017-12-22T12:08:22.083Z,10.43
2017-12-22T12:10:51.070Z,9.40
2017-12-22T12:13:19.409Z,9.57
2017-12-22T12:15:48.633Z,8.30
2017-12-22T12:18:16.986Z,7.27
2017-12-22T12:20:46.290Z,9.13
2017-12-22T12:23:15.723Z,7.30
2017-12-22T12:25:44.078Z,8.00
2017-12-22T12:28:12.454Z,8.17
2017-12-22T12:30:40.835Z,7.10
2017-12-22T12:33:09.372Z,7.70
2017-12-22T12:35:37.793Z,8.20
2017-12-22T12:38:06.164Z,8.17
2017-12-22T12:40:34.826Z,9.00
2017-12-22T12:43:04.021Z,10.20
2017-12-22T12:45:32.531Z,9.80
2017-12-22T12:48:00.910Z,8.20
2017-12-22T12:50:29.355Z,7.00
2017-12-22T12:52:57.883Z,6.70
2017-12-22T12:55:26.321Z,7.10
2017-12-22T12:57:55.460Z,6.67
2017-12-22T13:00:23.904Z,6.40
2017-12-22T13:02:52.320Z,8.60
2017-12-22T13:05:20.734Z,6.97
2017-12-22T13:07:49.197Z,6.30
2017-12-22T13:10:17.575Z,7.10
2017-12-22T13:12:45.934Z,7.13
2017-12-22T13:15:14.469Z,6.73
2017-12-22T13:17:42.823Z,8.00
2017-12-22T13:20:11.205Z,8.00
2017-12-22T13:22:39.655Z,8.30
2017-12-22T13:25:08.209Z,9.70
2017-12-22T13:27:37.502Z,8.83
2017-12-22T13:30:06.603Z,10.90
2017-12-22T13:32:35.167Z,9.30
2017-12-22T13:35:04.094Z,9.37
2017-12-22T13:37:32.502Z,9.43
2017-12-22T13:40:00.905Z,8.53
2017-12-22T13:42:30.782Z,9.13
2017-12-22T13:44:59.146Z,8.40
2017-12-22T13:47:28.346Z,8.70
2017-12-22T13:49:56.838Z,11.93
2017-12-22T13:52:25.434Z,8.77
2017-12-22T13:54:54.000Z,10.10
2017-12-22T13:57:22.408Z,9.47
2017-12-22T13:59:51.657Z,9.40
2017-12-22T14:02:20.043Z,11.03
2017-12-22T14:04:48.649Z,11.57
2017-12-22T14:07:17.105Z,12.50
2017-12-22T14:09:45.497Z,15.00
2017-12-22T14:12:13.934Z,15.50
2017-12-22T14:14:43.115Z,12.73
2017-12-22T14:17:12.258Z,16.30
2017-12-22T14:19:40.746Z,14.67
2017-12-22T14:22:09.327Z,15.77
2017-12-22T14:24:37.449Z,16.60
2017-12-22T14:27:06.738Z,17.30
2017-12-22T14:29:35.124Z,15.30
2017-12-22T14:32:03.955Z,14.90
2017-12-22T14:34:32.350Z,15.87
2017-12-22T14:37:00.716Z,16.03
2017-12-22T14:39:29.308Z,16.27
2017-12-22T14:41:57.824Z,14.00
2017-12-22T14:44:26.227Z,15.67
2017-12-22T14:46:55.555Z,13.53
2017-12-22T14:49:24.171Z,12.87
2017-12-22T14:51:52.926Z,16.93
2017-12-22T14:54:21.297Z,18.00
2017-12-22T14:56:49.796Z,16.40
2017-12-22T14:59:18.161Z,17.07
2017-12-22T15:01:46.713Z,15.40
2017-12-22T15:04:15.877Z,15.60
2017-12-22T15:06:44.282Z,15.17
2017-12-22T15:09:13.441Z,17.70
2017-12-22T15:11:41.963Z,17.40
2017-12-22T15:14:11.263Z,13.83
2017-12-22T15:16:40.390Z,17.23
2017-12-22T15:19:08.764Z,18.80
2017-12-22T15:21:37.292Z,16.97
2017-12-22T15:24:06.446Z,14.27
2017-12-22T15:26:34.793Z,16.53
2017-12-22T15:29:03.937Z,17.00
2017-12-22T15:31:32.442Z,17.30
2017-12-22T15:34:00.829Z,16.60
2017-12-22T15:36:29.278Z,18.57
2017-12-22T15:38:58.620Z,14.40
2017-12-22T15:41:28.292Z,15.27
2017-12-22T15:43:56.755Z,17.70
2017-12-22T15:46:25.174Z,17.10
2017-12-22T15:48:54.628Z,18.03
2017-12-22T15:51:23.114Z,18.27
2017-12-22T15:53:52.187Z,16.77
2017-12-22T15:56:20.677Z,13.70
2017-12-22T15:58:49.020Z,19.00
2017-12-22T16:01:19.066Z,19.93
2017-12-22T16:03:47.580Z,18.47
2017-12-22T16:06:16.538Z,18.50
2017-12-22T16:08:45.126Z,20.23
2017-12-22T16:11:13.506Z,16.80
2017-12-22T16:13:42.695Z,17.27
2017-12-22T16:16:11.066Z,17.17
2017-12-22T16:18:39.446Z,12.80
2017-12-22T16:21:08.109Z,15.80
2017-12-22T16:23:37.316Z,15.83
2017-12-22T16:26:05.700Z,16.33
2017-12-22T16:28:34.075Z,14.40
2017-12-22T16:31:02.564Z,13.67
2017-12-22T16:33:30.913Z,19.90
2017-12-22T16:36:00.452Z,17.87
2017-12-22T16:38:29.090Z,18.57
2017-12-22T16:40:57.635Z,17.17
2017-12-22T16:43:26.015Z,16.93
2017-12-22T16:45:54.888Z,16.07
2017-12-22T16:48:23.804Z,18.13
2017-12-22T16:50:53.084Z,16.90
2017-12-22T16:53:21.504Z,21.43
2017-12-22T16:55:50.041Z,20.97
2017-12-22T16:58:18.572Z,18.00
2017-12-22T17:00:48.456Z,21.80
2017-12-22T17:03:16.948Z,20.00
2017-12-22T17:05:45.362Z,24.97
2017-12-22T17:08:14.709Z,19.53
2017-12-22T17:10:43.277Z,21.03
2017-12-22T17:13:11.937Z,20.63
2017-12-22T17:15:41.051Z,25.57
2017-12-22T17:18:09.512Z,25.10
2017-12-22T17:20:38.639Z,26.03
2017-12-22T17:23:07.072Z,23.80
2017-12-22T17:25:36.210Z,24.10
2017-12-22T17:28:04.712Z,26.00
2017-12-22T17:30:33.074Z,21.07
2017-12-22T17:33:01.454Z,19.70
2017-12-22T17:35:29.800Z,23.10
2017-12-22T17:37:58.943Z,21.80
2017-12-22T17:40:27.336Z,22.83
2017-12-22T17:42:55.785Z,20.47
2017-12-22T17:45:24.319Z,23.03
2017-12-22T17:47:53.499Z,21.40
2017-12-22T17:50:21.866Z,22.40
2017-12-22T17:52:50.371Z,21.20
2017-12-22T17:55:19.525Z,20.20
2017-12-22T17:57:47.880Z,22.67
2017-12-22T18:00:16.438Z,21.93
2017-12-22T18:02:45.591Z,23.67
2017-12-22T18:05:13.645Z,25.30
2017-12-22T18:07:41.527Z,30.20
2017-12-22T18:10:09.815Z,31.03
2017-12-22T18:12:38.360Z,28.97
2017-12-22T18:15:07.648Z,28.10
2017-12-22T18:17:36.009Z,27.53
2017-12-22T18:20:05.850Z,27.10
2017-12-22T18:22:34.427Z,26.60
2017-12-22T18:25:04.136Z,25.93
2017-12-22T18:27:32.601Z,25.63
2017-12-22T18:30:01.026Z,25.60
2017-12-22T18:32:29.512Z,24.60
2017-12-22T18:34:58.063Z,29.03
2017-12-22T18:37:26.595Z,28.30
2017-12-22T18:39:55.810Z,27.40
2017-12-22T18:42:25.001Z,27.70
2017-12-22T18:44:53.567Z,25.53
2017-12-22T18:47:22.233Z,27.10
2017-12-22T18:49:51.134Z,27.50
2017-12-22T18:52:19.517Z,30.67
2017-12-22T18:54:48.048Z,30.33
2017-12-22T18:57:16.459Z,31.63
2017-12-22T18:59:44.965Z,28.83
2017-12-22T19:02:14.138Z,25.23
2017-12-22T19:04:42.526Z,29.63
2017-12-22T19:07:11.077Z,25.27
2017-12-22T19:09:39.514Z,31.50
2017-12-22T19:12:08.845Z,33.37
2017-12-22T19:14:38.202Z,33.10
2017-12-22T19:17:07.493Z,32.63
2017-12-22T19:19:36.647Z,30.47
2017-12-22T19:22:05.139Z,29.90
2017-12-22T19:24:33.599Z,30.37
2017-12-22T19:27:02.056Z,34.77
2017-12-22T19:29:30.484Z,28.63
2017-12-22T19:31:58.864Z,37.77
2017-12-22T19:34:27.231Z,31.87
2017-12-22T19:36:56.359Z,36.83
2017-12-22T19:39:24.877Z,37.23
2017-12-22T19:41:53.453Z,39.30
2017-12-22T19:44:21.829Z,35.83
2017-12-22T19:46:51.172Z,31.07
2017-12-22T19:49:19.743Z,37.73
2017-12-22T19:51:48.131Z,36.80
2017-12-22T19:54:16.520Z,35.57
2017-12-22T19:56:44.885Z,34.67
2017-12-22T19:59:13.271Z,42.17
2017-12-22T20:01:41.747Z,37.80
2017-12-22T20:04:10.114Z,37.27
2017-12-22T20:06:38.464Z,30.90
2017-12-22T20:09:07.173Z,28.00
2017-12-22T20:11:35.523Z,35.67
2017-12-22T20:14:04.611Z,33.00
2017-12-22T20:16:33.737Z,30.13
2017-12-22T20:19:02.335Z,35.67
2017-12-22T20:21:30.702Z,35.30
2017-12-22T20:23:59.103Z,29.67
2017-12-22T20:26:27.523Z,34.43
2017-12-22T20:28:56.677Z,36.33
2017-12-22T20:31:25.053Z,34.33
2017-12-22T20:33:53.579Z,33.57
2017-12-22T20:36:22.428Z,33.10
2017-12-22T20:38:50.814Z,30.03
2017-12-22T20:41:20.006Z,32.57
2017-12-22T20:43:48.369Z,29.43
2017-12-22T20:46:16.864Z,35.87
2017-12-22T20:48:45.327Z,31.30
2017-12-22T20:51:13.792Z,32.33
2017-12-22T20:53:42.196Z,34.90
2017-12-22T20:56:10.556Z,33.27
2017-12-22T20:58:38.984Z,33.70
2017-12-22T21:01:08.238Z,33.80
2017-12-22T21:03:36.896Z,32.90
2017-12-22T21:06:05.279Z,37.90
2017-12-22T21:08:33.817Z,40.00
2017-12-22T21:11:02.186Z,37.20
2017-12-22T21:13:30.585Z,38.03
2017-12-22T21:15:59.003Z,48.10
2017-12-22T21:18:27.435Z,44.10
2017-12-22T21:20:56.600Z,36.33
2017-12-22T21:23:24.968Z,36.40
2017-12-22T21:25:53.375Z,39.80
2017-12-22T21:28:21.750Z,41.23
2017-12-22T21:30:50.141Z,34.10
2017-12-22T21:33:19.342Z,31.30
2017-12-22T21:35:47.857Z,31.07
2017-12-22T21:38:16.275Z,24.00
2017-12-22T21:40:44.832Z,27.70
2017-12-22T21:43:13.228Z,23.27
2017-12-22T21:45:41.639Z,32.73
2017-12-22T21:48:11.068Z,21.23
2017-12-22T21:50:39.463Z,24.33
2017-12-22T21:53:07.853Z,23.27
2017-12-22T21:55:36.242Z,24.53
2017-12-22T21:58:04.669Z,22.57
2017-12-22T22:00:33.940Z,19.60
2017-12-22T22:03:02.325Z,19.73
2017-12-22T22:05:31.545Z,22.60
2017-12-22T22:08:01.085Z,21.33
2017-12-22T22:10:29.485Z,18.80
2017-12-22T22:12:57.888Z,20.40
2017-12-22T22:15:26.349Z,18.47
2017-12-22T22:17:54.697Z,17.30
2017-12-22T22:20:23.095Z,13.63
2017-12-22T22:22:51.533Z,16.30
2017-12-22T22:25:19.930Z,16.23
2017-12-22T22:27:48.340Z,13.73
2017-12-22T22:30:16.865Z,15.13
2017-12-22T22:32:45.379Z,15.77
2017-12-22T22:35:13.778Z,17.60
2017-12-22T22:37:42.178Z,15.00
2017-12-22T22:40:11.323Z,15.13
2017-12-22T22:42:39.756Z,15.50
2017-12-22T22:45:08.515Z,15.83
2017-12-22T22:47:36.872Z,17.67
2017-12-22T22:50:05.247Z,15.00
2017-12-22T22:52:33.925Z,17.60
2017-12-22T22:55:02.323Z,16.90
2017-12-22T22:57:30.854Z,18.63
2017-12-22T23:00:00.001Z,18.23
2017-12-22T23:02:28.408Z,17.53
2017-12-22T23:04:58.486Z,19.50
2017-12-22T23:07:26.864Z,14.93
2017-12-22T23:09:55.454Z,18.93
2017-12-22T23:12:23.823Z,21.03
2017-12-22T23:14:52.217Z,22.13
2017-12-22T23:17:21.571Z,20.80
2017-12-22T23:19:50.732Z,20.93
2017-12-22T23:22:19.110Z,21.87
2017-12-22T23:24:47.620Z,23.83
2017-12-22T23:27:16.120Z,23.33
2017-12-22T23:29:44.512Z,23.67
2017-12-22T23:32:13.161Z,22.67
2017-12-22T23:34:42.294Z,29.10
2017-12-22T23:37:10.683Z,28.63
2017-12-22T23:39:39.187Z,26.90
2017-12-22T23:42:07.556Z,29.47
2017-12-22T23:44:35.918Z,30.90
2017-12-22T23:47:04.497Z,29.43
2017-12-22T23:49:33.030Z,30.37
2017-12-22T23:52:02.428Z,29.07
2017-12-22T23:54:30.931Z,31.20
2017-12-22T23:56:59.399Z,38.97
2017-12-22T23:59:28.543Z,30.90
